createdAt,value
2023-05-20T00:00:35.694Z,12.40
2023-05-20T00:03:03.126Z,10.60
2023-05-20T00:05:30.514Z,10.40
2023-05-20T00:08:00.906Z,10.18
2023-05-20T00:10:28.298Z,12.77
2023-05-20T00:12:55.628Z,9.20
2023-05-20T00:15:22.978Z,10.65
2023-05-20T00:18:04.301Z,17.58
2023-05-20T00:20:31.920Z,11.70
2023-05-20T00:22:59.314Z,10.55
2023-05-20T00:25:26.799Z,12.60
2023-05-20T00:28:00.010Z,11.05
2023-05-20T00:30:27.561Z,13.02
2023-05-20T00:32:54.958Z,12.38
2023-05-20T00:35:22.517Z,11.20
2023-05-20T00:37:55.989Z,12.70
2023-05-20T00:40:24.824Z,11.80
2023-05-20T00:42:52.141Z,12.88
2023-05-20T00:45:19.603Z,10.13
2023-05-20T00:47:50.220Z,14.15
2023-05-20T00:50:17.912Z,13.02
2023-05-20T00:52:48.153Z,13.85
2023-05-20T00:55:16.077Z,11.55
2023-05-20T00:57:43.431Z,11.18
2023-05-20T01:00:11.048Z,12.38
2023-05-20T01:02:38.674Z,10.93
2023-05-20T01:05:06.832Z,12.23
2023-05-20T01:07:34.670Z,14.70
2023-05-20T01:10:04.881Z,10.55
2023-05-20T01:12:44.427Z,10.50
2023-05-20T01:15:12.925Z,13.85
2023-05-20T01:17:45.202Z,11.35
2023-05-20T01:20:14.384Z,13.32
2023-05-20T01:22:53.920Z,12.85
2023-05-20T01:25:21.268Z,11.20
2023-05-20T01:27:49.336Z,12.05
2023-05-20T01:30:16.998Z,13.55
2023-05-20T01:32:48.512Z,12.88
2023-05-20T01:35:16.832Z,11.68
2023-05-20T01:37:44.773Z,13.77
2023-05-20T01:40:15.111Z,13.35
2023-05-20T01:42:43.084Z,14.43
2023-05-20T01:45:11.174Z,16.98
2023-05-20T01:47:38.701Z,10.70
2023-05-20T01:50:06.394Z,11.32
2023-05-20T01:52:34.042Z,12.73
2023-05-20T01:55:01.597Z,14.77
2023-05-20T01:57:28.965Z,15.20
2023-05-20T01:59:56.336Z,14.38
2023-05-20T02:02:26.183Z,13.00
2023-05-20T02:04:54.499Z,14.50
2023-05-20T02:07:21.822Z,12.38
2023-05-20T02:09:49.324Z,13.05
2023-05-20T02:12:17.261Z,10.90
2023-05-20T02:14:50.414Z,14.75
2023-05-20T02:17:21.565Z,14.52
2023-05-20T02:20:14.281Z,13.05
2023-05-20T02:22:41.544Z,14.18
2023-05-20T02:25:10.814Z,13.77
2023-05-20T02:27:38.659Z,11.80
2023-05-20T02:30:06.426Z,14.95
2023-05-20T02:32:33.875Z,13.93
2023-05-20T02:35:01.238Z,12.55
2023-05-20T02:37:29.072Z,12.95
2023-05-20T02:39:59.397Z,13.32
2023-05-20T02:42:29.289Z,14.27
2023-05-20T02:44:58.533Z,11.40
2023-05-20T02:47:26.228Z,10.10
2023-05-20T02:49:53.695Z,14.93
2023-05-20T02:52:22.054Z,12.40
2023-05-20T02:54:49.525Z,13.32
2023-05-20T02:57:16.817Z,14.02
2023-05-20T03:00:22.271Z,11.00
2023-05-20T03:03:09.955Z,15.27
2023-05-20T03:05:38.217Z,14.15
2023-05-20T03:08:12.428Z,14.15
2023-05-20T03:10:39.929Z,12.35
2023-05-20T03:13:11.614Z,12.98
2023-05-20T03:15:39.678Z,12.63
2023-05-20T03:18:08.570Z,13.00
2023-05-20T03:20:36.966Z,12.95
2023-05-20T03:23:04.587Z,13.48
2023-05-20T03:25:32.363Z,13.68
2023-05-20T03:28:00.085Z,12.98
2023-05-20T03:30:30.604Z,12.50
2023-05-20T03:32:59.224Z,13.68
2023-05-20T03:35:26.854Z,13.70
2023-05-20T03:37:55.332Z,12.30
2023-05-20T03:40:24.699Z,12.88
2023-05-20T03:42:52.238Z,13.45
2023-05-20T03:45:21.189Z,13.15
2023-05-20T03:47:57.990Z,11.30
2023-05-20T03:50:25.352Z,15.63
2023-05-20T03:52:52.748Z,11.77
2023-05-20T03:55:22.937Z,13.30
2023-05-20T03:57:50.530Z,15.70
2023-05-20T04:00:18.712Z,14.18
2023-05-20T04:02:46.070Z,14.02
2023-05-20T04:05:17.236Z,14.65
2023-05-20T04:07:44.697Z,12.65
2023-05-20T04:10:13.834Z,12.73
2023-05-20T04:12:41.525Z,14.20
2023-05-20T04:15:09.584Z,13.18
2023-05-20T04:18:10.447Z,16.52
2023-05-20T04:20:38.613Z,14.68
2023-05-20T04:23:06.364Z,16.08
2023-05-20T04:25:34.764Z,12.55
2023-05-20T04:28:02.831Z,14.23
2023-05-20T04:30:33.465Z,13.82
2023-05-20T04:33:03.581Z,11.63
2023-05-20T04:35:31.590Z,11.40
2023-05-20T04:38:05.533Z,11.43
2023-05-20T04:40:32.916Z,15.48
2023-05-20T04:43:00.975Z,12.18
2023-05-20T04:45:28.510Z,14.88
2023-05-20T04:47:55.772Z,12.25
2023-05-20T04:50:23.317Z,14.57
2023-05-20T04:52:50.713Z,13.93
2023-05-20T04:55:18.558Z,12.27
2023-05-20T04:57:45.920Z,13.50
2023-05-20T05:00:13.601Z,12.68
2023-05-20T05:02:41.585Z,13.65
2023-05-20T05:05:09.263Z,11.68
2023-05-20T05:07:36.422Z,16.10
2023-05-20T05:10:04.407Z,10.73
2023-05-20T05:12:32.837Z,14.30
2023-05-20T05:15:00.436Z,10.98
2023-05-20T05:17:28.975Z,18.67
2023-05-20T05:19:57.714Z,11.18
2023-05-20T05:22:26.666Z,11.20
2023-05-20T05:24:55.904Z,11.23
2023-05-20T05:27:23.457Z,15.48
2023-05-20T05:29:51.140Z,9.60
2023-05-20T05:32:19.561Z,10.18
2023-05-20T05:34:46.721Z,12.07
2023-05-20T05:37:14.224Z,11.85
2023-05-20T05:39:42.545Z,11.63
2023-05-20T05:42:09.909Z,10.32
2023-05-20T05:44:37.344Z,11.63
2023-05-20T05:47:07.078Z,10.27
2023-05-20T05:49:34.926Z,9.98
2023-05-20T05:52:03.203Z,9.20
2023-05-20T05:54:30.651Z,9.98
2023-05-20T05:56:58.104Z,11.70
2023-05-20T05:59:27.940Z,12.43
2023-05-20T06:02:02.421Z,11.40
2023-05-20T06:04:29.837Z,11.70
2023-05-20T06:06:58.313Z,9.88
2023-05-20T06:09:34.049Z,12.35
2023-05-20T06:12:23.941Z,11.40
2023-05-20T06:15:09.347Z,11.25
2023-05-20T06:17:36.776Z,10.63
2023-05-20T06:20:04.492Z,9.02
2023-05-20T06:22:31.877Z,10.55
2023-05-20T06:25:01.740Z,8.80
2023-05-20T06:27:55.799Z,8.93
2023-05-20T06:30:42.106Z,9.55
2023-05-20T06:33:28.708Z,10.02
2023-05-20T06:36:01.904Z,8.55
2023-05-20T06:38:29.650Z,10.38
2023-05-20T06:41:02.696Z,9.35
2023-05-20T06:43:32.010Z,10.95
2023-05-20T06:46:35.006Z,9.77
2023-05-20T06:49:06.021Z,10.18
2023-05-20T06:51:39.611Z,10.95
2023-05-20T06:54:07.347Z,9.35
2023-05-20T06:56:34.690Z,9.68
2023-05-20T06:59:01.947Z,7.78
2023-05-20T07:01:30.270Z,9.18
2023-05-20T07:03:57.727Z,9.88
2023-05-20T07:06:25.372Z,8.43
2023-05-20T07:08:52.711Z,7.70
2023-05-20T07:11:21.766Z,11.45
2023-05-20T07:13:48.658Z,10.55
2023-05-20T07:16:16.078Z,8.98
2023-05-20T07:18:48.403Z,10.50
2023-05-20T07:21:15.828Z,8.07
2023-05-20T07:24:15.150Z,9.70
2023-05-20T07:29:23.869Z,8.50
2023-05-20T07:31:53.411Z,11.48
2023-05-20T07:34:23.547Z,7.72
2023-05-20T07:36:51.743Z,9.05
2023-05-20T07:39:19.142Z,7.25
2023-05-20T07:41:48.997Z,8.27
2023-05-20T07:44:18.676Z,8.35
2023-05-20T07:46:49.369Z,8.10
2023-05-20T07:49:16.698Z,8.40
2023-05-20T07:51:47.671Z,7.88
2023-05-20T07:54:16.509Z,8.38
2023-05-20T07:56:47.042Z,9.38
2023-05-20T07:59:13.970Z,7.40
2023-05-20T08:01:44.845Z,10.98
2023-05-20T08:04:14.338Z,7.88
2023-05-20T08:06:43.398Z,8.07
2023-05-20T08:09:15.349Z,8.60
2023-05-20T08:11:48.060Z,8.95
2023-05-20T08:14:15.325Z,7.97
2023-05-20T08:16:44.197Z,7.25
2023-05-20T08:19:11.139Z,7.93
2023-05-20T08:21:39.274Z,7.93
2023-05-20T08:24:06.694Z,6.75
2023-05-20T08:26:33.680Z,7.20
2023-05-20T08:29:01.306Z,6.78
2023-05-20T08:31:29.467Z,6.88
2023-05-20T08:34:03.296Z,7.18
2023-05-20T08:36:31.071Z,6.88
2023-05-20T08:39:28.912Z,6.32
2023-05-20T08:42:02.435Z,5.65
2023-05-20T08:44:30.472Z,4.10
2023-05-20T08:46:58.260Z,7.40
2023-05-20T08:49:25.694Z,6.72
2023-05-20T08:51:53.306Z,3.97
2023-05-20T08:54:23.934Z,5.07
2023-05-20T08:56:53.950Z,9.40
2023-05-20T08:59:22.126Z,5.28
2023-05-20T09:01:49.479Z,6.80
2023-05-20T09:04:19.748Z,6.63
2023-05-20T09:06:47.255Z,7.00
2023-05-20T09:09:14.691Z,7.05
2023-05-20T09:11:42.612Z,6.60
2023-05-20T09:14:09.794Z,6.05
2023-05-20T09:16:37.078Z,5.20
2023-05-20T09:19:08.047Z,5.85
2023-05-20T09:21:35.820Z,10.25
2023-05-20T09:24:03.142Z,10.70
2023-05-20T09:26:30.305Z,4.95
2023-05-20T09:28:58.002Z,5.50
2023-05-20T09:31:31.532Z,6.38
2023-05-20T09:33:58.849Z,6.22
2023-05-20T09:36:29.897Z,4.32
2023-05-20T09:39:05.251Z,7.15
2023-05-20T09:41:39.856Z,7.13
2023-05-20T09:44:07.315Z,5.78
2023-05-20T09:46:35.703Z,13.52
2023-05-20T09:49:07.803Z,6.28
2023-05-20T09:51:43.227Z,6.50
2023-05-20T09:54:12.759Z,5.80
2023-05-20T09:56:41.745Z,7.72
2023-05-20T09:59:10.639Z,5.65
2023-05-20T10:01:37.692Z,4.25
2023-05-20T10:04:09.303Z,5.25
2023-05-20T10:07:01.917Z,6.28
2023-05-20T10:09:34.698Z,8.02
2023-05-20T10:12:02.263Z,6.28
2023-05-20T10:14:50.530Z,3.75
2023-05-20T10:17:39.407Z,4.88
2023-05-20T10:20:11.907Z,7.13
2023-05-20T10:22:42.200Z,6.10
2023-05-20T10:25:13.020Z,7.30
2023-05-20T10:27:49.190Z,6.35
2023-05-20T10:30:28.814Z,3.33
2023-05-20T10:33:00.316Z,4.35
2023-05-20T10:35:27.874Z,5.75
2023-05-20T10:38:08.625Z,4.25
2023-05-20T10:40:36.335Z,8.20
2023-05-20T10:43:29.011Z,6.43
2023-05-20T10:45:57.642Z,5.07
2023-05-20T10:48:32.893Z,4.55
2023-05-20T10:53:39.588Z,7.50
2023-05-20T10:56:19.077Z,6.70
2023-05-20T10:58:50.722Z,4.72
2023-05-20T11:01:19.214Z,6.97
2023-05-20T11:03:50.064Z,7.15
2023-05-20T11:06:20.821Z,8.13
2023-05-20T11:09:04.657Z,6.15
2023-05-20T11:11:31.539Z,5.18
2023-05-20T11:13:58.658Z,6.35
2023-05-20T11:16:25.769Z,4.18
2023-05-20T11:18:53.148Z,5.47
2023-05-20T11:21:20.366Z,4.45
2023-05-20T11:23:47.380Z,4.05
2023-05-20T11:26:14.344Z,6.00
2023-05-20T11:28:44.640Z,5.20
2023-05-20T11:31:17.872Z,4.75
2023-05-20T11:34:11.750Z,4.57
2023-05-20T11:36:43.251Z,4.53
2023-05-20T11:39:12.006Z,4.60
2023-05-20T11:41:39.146Z,6.22
2023-05-20T11:44:39.781Z,4.78
2023-05-20T11:47:07.373Z,3.35
2023-05-20T11:49:42.872Z,7.15
2023-05-20T11:52:11.246Z,6.50
2023-05-20T11:54:38.330Z,7.00
2023-05-20T11:57:08.292Z,6.07
2023-05-20T11:59:36.752Z,4.38
2023-05-20T12:02:04.137Z,4.70
2023-05-20T12:04:31.654Z,4.53
2023-05-20T12:10:11.736Z,6.70
2023-05-20T12:12:45.120Z,5.95
2023-05-20T12:15:17.658Z,4.22
2023-05-20T12:17:50.884Z,4.68
2023-05-20T12:20:27.286Z,4.32
2023-05-20T12:22:54.114Z,5.28
2023-05-20T12:25:21.669Z,5.38
2023-05-20T12:27:49.889Z,3.40
2023-05-20T12:30:18.798Z,3.63
2023-05-20T12:32:47.242Z,4.32
2023-05-20T12:35:16.941Z,4.88
2023-05-20T12:37:46.890Z,4.05
2023-05-20T12:40:27.522Z,6.05
2023-05-20T12:43:19.822Z,3.50
2023-05-20T12:45:47.301Z,5.15
2023-05-20T12:48:14.550Z,7.80
2023-05-20T12:50:41.912Z,4.18
2023-05-20T12:53:09.340Z,5.15
2023-05-20T12:55:40.427Z,4.43
2023-05-20T12:58:10.570Z,5.88
2023-05-20T13:00:37.940Z,6.13
2023-05-20T13:03:16.002Z,6.18
2023-05-20T13:06:05.718Z,5.88
2023-05-20T13:08:52.467Z,4.78
2023-05-20T13:11:19.788Z,3.38
2023-05-20T13:13:47.368Z,6.75
2023-05-20T13:16:40.120Z,5.68
2023-05-20T13:19:08.952Z,5.10
2023-05-20T13:21:36.561Z,6.03
2023-05-20T13:24:08.403Z,5.95
2023-05-20T13:26:35.994Z,6.85
2023-05-20T13:29:10.616Z,5.75
2023-05-20T13:31:39.155Z,4.45
2023-05-20T13:34:23.948Z,8.07
2023-05-20T13:37:59.754Z,5.03
2023-05-20T13:40:33.291Z,5.63
2023-05-20T13:43:13.659Z,7.18
2023-05-20T13:45:47.067Z,3.28
2023-05-20T13:48:20.887Z,5.75
2023-05-20T13:51:02.453Z,7.53
2023-05-20T13:53:43.989Z,7.20
2023-05-20T13:59:03.450Z,4.50
2023-05-20T14:02:21.624Z,6.72
2023-05-20T14:04:51.663Z,8.93
2023-05-20T14:07:34.330Z,5.20
2023-05-20T14:11:14.237Z,4.10
2023-05-20T14:13:44.545Z,9.25
2023-05-20T14:18:57.967Z,4.93
2023-05-20T14:21:33.542Z,6.15
2023-05-20T14:29:27.354Z,6.45
2023-05-20T14:35:08.671Z,7.10
2023-05-20T14:37:36.044Z,6.78
2023-05-20T14:40:32.460Z,5.05
2023-05-20T14:43:01.064Z,5.47
2023-05-20T14:45:31.107Z,6.68
2023-05-20T14:52:28.008Z,7.22
2023-05-20T14:54:59.659Z,3.83
2023-05-20T14:57:39.641Z,5.30
2023-05-20T15:03:21.704Z,5.88
2023-05-20T15:06:13.500Z,5.47
2023-05-20T15:08:49.368Z,6.40
2023-05-20T15:11:22.825Z,7.03
2023-05-20T15:14:08.069Z,5.63
2023-05-20T15:16:38.812Z,6.00
2023-05-20T15:19:08.753Z,6.10
2023-05-20T15:22:02.994Z,7.47
2023-05-20T15:27:47.298Z,4.88
2023-05-20T15:30:20.191Z,6.28
2023-05-20T15:33:03.183Z,8.02
2023-05-20T15:35:30.573Z,5.85
2023-05-20T15:37:57.963Z,6.95
2023-05-20T15:43:01.887Z,5.75
2023-05-20T15:50:10.381Z,9.00
2023-05-20T15:52:38.478Z,5.70
2023-05-20T15:55:06.033Z,7.10
2023-05-20T15:57:33.333Z,6.95
2023-05-20T16:00:00.644Z,6.63
2023-05-20T16:02:28.238Z,5.93
2023-05-20T16:04:56.045Z,7.53
2023-05-20T16:07:23.228Z,4.18
2023-05-20T16:09:50.718Z,7.25
2023-05-20T16:12:17.950Z,6.68
2023-05-20T16:14:45.404Z,7.45
2023-05-20T16:17:13.132Z,6.60
2023-05-20T16:19:40.554Z,5.47
2023-05-20T16:22:09.241Z,3.65
2023-05-20T16:24:36.289Z,4.35
2023-05-20T16:27:03.452Z,7.82
2023-05-20T16:29:31.560Z,5.70
2023-05-20T16:31:59.653Z,7.47
2023-05-20T16:34:28.116Z,12.18
2023-05-20T16:36:56.615Z,7.18
2023-05-20T16:39:24.221Z,6.60
2023-05-20T16:41:55.079Z,6.18
2023-05-20T16:44:38.943Z,9.00
2023-05-20T16:47:07.092Z,7.72
2023-05-20T16:49:37.027Z,6.60
2023-05-20T16:52:17.137Z,6.63
2023-05-20T16:54:52.876Z,6.28
2023-05-20T16:57:20.524Z,7.55
2023-05-20T16:59:47.749Z,6.53
2023-05-20T17:02:17.571Z,5.55
2023-05-20T17:04:44.788Z,6.30
2023-05-20T17:07:15.511Z,6.90
2023-05-20T17:09:42.862Z,7.80
2023-05-20T17:12:10.178Z,7.93
2023-05-20T17:14:37.357Z,5.22
2023-05-20T17:17:04.685Z,11.00
2023-05-20T17:19:32.054Z,4.47
2023-05-20T17:21:58.925Z,6.30
2023-05-20T17:24:25.696Z,6.43
2023-05-20T17:26:56.074Z,6.60
2023-05-20T17:29:23.933Z,7.35
2023-05-20T17:31:50.951Z,8.45
2023-05-20T17:34:18.314Z,4.72
2023-05-20T17:36:45.662Z,4.88
2023-05-20T17:39:13.754Z,6.85
2023-05-20T17:41:42.988Z,4.03
2023-05-20T17:44:10.526Z,5.28
2023-05-20T17:46:37.991Z,5.13
2023-05-20T17:49:05.629Z,9.25
2023-05-20T17:51:35.132Z,6.82
2023-05-20T17:54:22.796Z,7.28
2023-05-20T17:56:52.261Z,4.68
2023-05-20T17:59:19.495Z,6.47
2023-05-20T18:01:46.741Z,5.75
2023-05-20T18:04:14.056Z,6.28
2023-05-20T18:06:41.717Z,6.95
2023-05-20T18:09:09.162Z,5.88
2023-05-20T18:11:36.706Z,4.82
2023-05-20T18:14:03.965Z,9.48
2023-05-20T18:16:31.603Z,4.40
2023-05-20T18:19:02.962Z,12.60
2023-05-20T18:21:30.720Z,6.65
2023-05-20T18:23:57.642Z,8.57
2023-05-20T18:26:24.635Z,7.88
2023-05-20T18:28:51.959Z,7.32
2023-05-20T18:31:19.310Z,6.93
2023-05-20T18:33:46.572Z,7.32
2023-05-20T18:36:13.828Z,4.78
2023-05-20T18:38:41.696Z,6.43
2023-05-20T18:41:09.358Z,6.38
2023-05-20T18:43:36.205Z,11.13
2023-05-20T18:46:04.158Z,8.43
2023-05-20T18:48:31.547Z,5.57
2023-05-20T18:50:58.824Z,6.97
2023-05-20T18:53:26.124Z,8.85
2023-05-20T18:56:01.178Z,7.00
2023-05-20T18:58:28.567Z,6.32
2023-05-20T19:00:58.832Z,6.90
2023-05-20T19:03:26.632Z,7.38
2023-05-20T19:05:54.015Z,6.75
2023-05-20T19:08:22.588Z,8.32
2023-05-20T19:10:49.861Z,5.53
2023-05-20T19:13:16.675Z,6.18
2023-05-20T19:15:44.394Z,4.70
2023-05-20T19:18:11.843Z,8.32
2023-05-20T19:20:40.096Z,7.10
2023-05-20T19:23:09.464Z,5.72
2023-05-20T19:25:36.909Z,7.15
2023-05-20T19:28:08.370Z,5.47
2023-05-20T19:30:37.122Z,6.85
2023-05-20T19:33:05.197Z,6.07
2023-05-20T19:35:33.059Z,7.20
2023-05-20T19:38:00.460Z,8.18
2023-05-20T19:40:28.592Z,6.88
2023-05-20T19:42:55.919Z,8.57
2023-05-20T19:45:23.718Z,8.55
2023-05-20T19:47:51.066Z,5.75
2023-05-20T19:50:18.533Z,6.65
2023-05-20T19:52:46.034Z,6.53
2023-05-20T19:55:13.309Z,5.88
2023-05-20T20:00:42.949Z,7.13
2023-05-20T20:03:12.281Z,4.45
2023-05-20T20:05:39.580Z,6.20
2023-05-20T20:08:06.930Z,5.78
2023-05-20T20:10:35.564Z,7.43
2023-05-20T20:13:02.788Z,7.00
2023-05-20T20:15:31.643Z,6.93
2023-05-20T20:18:03.043Z,6.88
2023-05-20T20:20:31.431Z,7.93
2023-05-20T20:22:58.626Z,7.35
2023-05-20T20:25:26.906Z,8.35
2023-05-20T20:27:54.241Z,6.93
2023-05-20T20:30:23.789Z,6.82
2023-05-20T20:32:52.664Z,5.80
2023-05-20T20:35:22.718Z,6.60
2023-05-20T20:37:54.370Z,5.95
2023-05-20T20:40:25.624Z,10.70
2023-05-20T20:42:58.420Z,10.05
2023-05-20T20:45:25.877Z,10.02
2023-05-20T20:47:54.828Z,7.55
2023-05-20T20:50:47.930Z,6.40
2023-05-20T20:53:17.033Z,6.50
2023-05-20T20:55:46.342Z,6.72
2023-05-20T20:58:15.436Z,6.47
2023-05-20T21:00:44.431Z,8.45
2023-05-20T21:03:12.837Z,6.85
2023-05-20T21:05:40.433Z,8.63
2023-05-20T21:08:08.517Z,6.45
2023-05-20T21:10:37.084Z,7.38
2023-05-20T21:13:04.850Z,7.57
2023-05-20T21:15:32.077Z,5.85
2023-05-20T21:17:59.488Z,6.53
2023-05-20T21:20:26.692Z,7.75
2023-05-20T21:22:53.527Z,7.80
2023-05-20T21:25:21.018Z,7.10
2023-05-20T21:27:47.824Z,8.80
2023-05-20T21:30:15.863Z,6.95
2023-05-20T21:32:43.381Z,7.05
2023-05-20T21:35:10.848Z,7.78
2023-05-20T21:37:38.224Z,7.20
2023-05-20T21:40:28.550Z,5.75
2023-05-20T21:42:55.893Z,7.20
2023-05-20T21:45:23.276Z,6.78
2023-05-20T21:47:53.474Z,6.65
2023-05-20T21:50:22.433Z,6.68
2023-05-20T21:52:53.260Z,5.88
2023-05-20T21:55:26.257Z,9.07
2023-05-20T21:57:54.586Z,7.50
2023-05-20T22:00:21.854Z,6.72
2023-05-20T22:02:50.830Z,6.15
2023-05-20T22:05:18.254Z,7.72
2023-05-20T22:07:46.549Z,6.97
2023-05-20T22:10:17.230Z,8.90
2023-05-20T22:12:45.021Z,6.93
2023-05-20T22:15:12.426Z,7.70
2023-05-20T22:17:39.690Z,8.63
2023-05-20T22:20:08.395Z,7.95
2023-05-20T22:22:39.306Z,7.78
2023-05-20T22:25:09.786Z,6.57
2023-05-20T22:27:37.225Z,8.05
2023-05-20T22:30:06.894Z,7.03
2023-05-20T22:32:34.280Z,8.20
2023-05-20T22:35:01.541Z,8.18
2023-05-20T22:37:28.929Z,7.15
2023-05-20T22:39:56.448Z,7.30
2023-05-20T22:42:25.121Z,8.15
2023-05-20T22:44:51.905Z,9.20
2023-05-20T22:47:19.721Z,7.60
2023-05-20T22:49:46.979Z,7.20
2023-05-20T22:52:14.500Z,6.88
2023-05-20T22:54:41.715Z,8.02
2023-05-20T22:57:09.024Z,7.70
2023-05-20T22:59:36.595Z,7.05
2023-05-20T23:02:04.515Z,8.88
2023-05-20T23:04:31.555Z,8.50
2023-05-20T23:06:59.630Z,7.50
2023-05-20T23:09:27.069Z,7.85
2023-05-20T23:11:54.298Z,8.27
2023-05-20T23:14:21.740Z,6.70
2023-05-20T23:16:49.960Z,7.85
2023-05-20T23:19:17.226Z,10.85
2023-05-20T23:21:47.015Z,8.30
2023-05-20T23:24:15.105Z,7.43
2023-05-20T23:26:42.989Z,6.72
2023-05-20T23:29:10.473Z,6.40
2023-05-20T23:31:37.730Z,9.18
2023-05-20T23:34:05.060Z,6.72
2023-05-20T23:36:35.447Z,8.45
2023-05-20T23:39:02.870Z,8.20
2023-05-20T23:41:29.709Z,7.35
2023-05-20T23:43:56.509Z,7.82
2023-05-20T23:46:23.708Z,8.50
2023-05-20T23:48:52.766Z,7.28
2023-05-20T23:51:20.318Z,7.55
2023-05-20T23:53:47.502Z,9.35
2023-05-20T23:56:14.763Z,7.45
2023-05-20T23:58:41.969Z,8.02
